sensor_id;sensor_type;location;lat;lon;timestamp;P1;durP1;ratioP1;P2;durP2;ratioP2
59310;SDS011;45078;51.654;21.250;2023-02-04T00:00:53;19.55;;;7.22;;
59310;SDS011;45078;51.654;21.250;2023-02-04T00:03:19;12.00;;;6.78;;
59310;SDS011;45078;51.654;21.250;2023-02-04T00:05:45;17.48;;;6.45;;
59310;SDS011;45078;51.654;21.250;2023-02-04T00:08:10;12.95;;;7.25;;
59310;SDS011;45078;51.654;21.250;2023-02-04T00:10:36;15.32;;;7.57;;
59310;SDS011;45078;51.654;21.250;2023-02-04T00:13:03;12.90;;;7.47;;
59310;SDS011;45078;51.654;21.250;2023-02-04T00:15:29;12.68;;;6.47;;
59310;SDS011;45078;51.654;21.250;2023-02-04T00:17:55;15.63;;;8.27;;
59310;SDS011;45078;51.654;21.250;2023-02-04T00:20:21;12.65;;;6.45;;
59310;SDS011;45078;51.654;21.250;2023-02-04T00:22:47;11.93;;;6.07;;
59310;SDS011;45078;51.654;21.250;2023-02-04T00:25:13;10.68;;;6.45;;
59310;SDS011;45078;51.654;21.250;2023-02-04T00:27:39;15.38;;;6.78;;
59310;SDS011;45078;51.654;21.250;2023-02-04T00:30:05;13.75;;;7.03;;
59310;SDS011;45078;51.654;21.250;2023-02-04T00:32:32;10.75;;;5.95;;
59310;SDS011;45078;51.654;21.250;2023-02-04T00:34:58;9.65;;;5.45;;
59310;SDS011;45078;51.654;21.250;2023-02-04T00:37:25;13.25;;;6.43;;
59310;SDS011;45078;51.654;21.250;2023-02-04T00:39:51;8.32;;;4.38;;
59310;SDS011;45078;51.654;21.250;2023-02-04T00:42:17;11.43;;;5.43;;
59310;SDS011;45078;51.654;21.250;2023-02-04T00:44:43;10.52;;;5.18;;
59310;SDS011;45078;51.654;21.250;2023-02-04T00:47:09;10.10;;;5.15;;
59310;SDS011;45078;51.654;21.250;2023-02-04T00:49:34;9.73;;;5.47;;
59310;SDS011;45078;51.654;21.250;2023-02-04T00:52:00;8.57;;;4.55;;
59310;SDS011;45078;51.654;21.250;2023-02-04T00:54:26;8.15;;;4.53;;
59310;SDS011;45078;51.654;21.250;2023-02-04T00:56:52;7.28;;;3.88;;
59310;SDS011;45078;51.654;21.250;2023-02-04T00:59:18;10.30;;;4.38;;
59310;SDS011;45078;51.654;21.250;2023-02-04T01:01:44;8.98;;;4.50;;
59310;SDS011;45078;51.654;21.250;2023-02-04T01:04:10;7.47;;;4.18;;
59310;SDS011;45078;51.654;21.250;2023-02-04T01:06:36;6.75;;;3.65;;
59310;SDS011;45078;51.654;21.250;2023-02-04T01:09:02;12.45;;;5.45;;
59310;SDS011;45078;51.654;21.250;2023-02-04T01:11:29;7.78;;;4.78;;
59310;SDS011;45078;51.654;21.250;2023-02-04T01:13:55;10.32;;;4.88;;
59310;SDS011;45078;51.654;21.250;2023-02-04T01:16:21;9.05;;;5.05;;
59310;SDS011;45078;51.654;21.250;2023-02-04T01:18:47;6.03;;;4.13;;
59310;SDS011;45078;51.654;21.250;2023-02-04T01:21:13;4.90;;;3.70;;
59310;SDS011;45078;51.654;21.250;2023-02-04T01:23:39;12.55;;;4.38;;
59310;SDS011;45078;51.654;21.250;2023-02-04T01:26:05;7.88;;;4.47;;
59310;SDS011;45078;51.654;21.250;2023-02-04T01:28:30;8.20;;;4.68;;
59310;SDS011;45078;51.654;21.250;2023-02-04T01:30:56;7.72;;;4.57;;
59310;SDS011;45078;51.654;21.250;2023-02-04T01:33:22;8.13;;;4.47;;
59310;SDS011;45078;51.654;21.250;2023-02-04T01:35:48;6.88;;;4.55;;
59310;SDS011;45078;51.654;21.250;2023-02-04T01:38:14;8.40;;;3.13;;
59310;SDS011;45078;51.654;21.250;2023-02-04T01:40:40;7.90;;;4.50;;
59310;SDS011;45078;51.654;21.250;2023-02-04T01:43:07;7.35;;;4.18;;
59310;SDS011;45078;51.654;21.250;2023-02-04T01:45:33;6.93;;;4.75;;
59310;SDS011;45078;51.654;21.250;2023-02-04T01:48:00;11.82;;;4.97;;
59310;SDS011;45078;51.654;21.250;2023-02-04T01:50:28;7.50;;;4.22;;
59310;SDS011;45078;51.654;21.250;2023-02-04T01:52:54;6.88;;;3.80;;
59310;SDS011;45078;51.654;21.250;2023-02-04T01:55:21;7.55;;;4.95;;
59310;SDS011;45078;51.654;21.250;2023-02-04T01:57:51;11.25;;;5.00;;
59310;SDS011;45078;51.654;21.250;2023-02-04T02:00:22;7.80;;;4.85;;
59310;SDS011;45078;51.654;21.250;2023-02-04T02:02:58;6.43;;;3.90;;
59310;SDS011;45078;51.654;21.250;2023-02-04T02:05:26;7.78;;;5.05;;
59310;SDS011;45078;51.654;21.250;2023-02-04T02:08:11;9.05;;;5.05;;
59310;SDS011;45078;51.654;21.250;2023-02-04T02:10:39;8.02;;;4.60;;
59310;SDS011;45078;51.654;21.250;2023-02-04T02:13:06;10.18;;;5.70;;
59310;SDS011;45078;51.654;21.250;2023-02-04T02:15:35;10.63;;;5.93;;
59310;SDS011;45078;51.654;21.250;2023-02-04T02:18:00;8.05;;;5.05;;
59310;SDS011;45078;51.654;21.250;2023-02-04T02:20:26;12.13;;;4.97;;
59310;SDS011;45078;51.654;21.250;2023-02-04T02:25:37;7.35;;;4.40;;
59310;SDS011;45078;51.654;21.250;2023-02-04T02:28:06;7.55;;;4.63;;
59310;SDS011;45078;51.654;21.250;2023-02-04T02:30:37;11.88;;;5.10;;
59310;SDS011;45078;51.654;21.250;2023-02-04T02:33:02;9.82;;;5.28;;
59310;SDS011;45078;51.654;21.250;2023-02-04T02:35:30;8.48;;;4.72;;
59310;SDS011;45078;51.654;21.250;2023-02-04T02:37:56;11.02;;;5.22;;
59310;SDS011;45078;51.654;21.250;2023-02-04T02:40:22;8.45;;;4.30;;
59310;SDS011;45078;51.654;21.250;2023-02-04T02:42:48;4.13;;;3.03;;
59310;SDS011;45078;51.654;21.250;2023-02-04T02:45:24;7.75;;;4.55;;
59310;SDS011;45078;51.654;21.250;2023-02-04T02:47:51;10.82;;;5.38;;
59310;SDS011;45078;51.654;21.250;2023-02-04T02:50:19;8.23;;;5.07;;
59310;SDS011;45078;51.654;21.250;2023-02-04T02:52:47;8.70;;;4.55;;
59310;SDS011;45078;51.654;21.250;2023-02-04T02:55:17;7.35;;;5.07;;
59310;SDS011;45078;51.654;21.250;2023-02-04T02:57:44;6.13;;;3.63;;
59310;SDS011;45078;51.654;21.250;2023-02-04T03:00:13;5.85;;;3.78;;
59310;SDS011;45078;51.654;21.250;2023-02-04T03:02:40;6.90;;;4.45;;
59310;SDS011;45078;51.654;21.250;2023-02-04T03:05:07;5.90;;;4.28;;
59310;SDS011;45078;51.654;21.250;2023-02-04T03:07:34;9.60;;;4.80;;
59310;SDS011;45078;51.654;21.250;2023-02-04T03:10:00;6.88;;;4.07;;
59310;SDS011;45078;51.654;21.250;2023-02-04T03:12:26;10.98;;;5.20;;
59310;SDS011;45078;51.654;21.250;2023-02-04T03:14:52;9.27;;;5.25;;
59310;SDS011;45078;51.654;21.250;2023-02-04T03:17:18;6.93;;;3.85;;
59310;SDS011;45078;51.654;21.250;2023-02-04T03:19:44;9.20;;;3.88;;
59310;SDS011;45078;51.654;21.250;2023-02-04T03:22:10;11.82;;;4.95;;
59310;SDS011;45078;51.654;21.250;2023-02-04T03:24:35;7.15;;;4.03;;
59310;SDS011;45078;51.654;21.250;2023-02-04T03:27:02;4.75;;;3.47;;
59310;SDS011;45078;51.654;21.250;2023-02-04T03:29:28;6.45;;;4.05;;
59310;SDS011;45078;51.654;21.250;2023-02-04T03:31:53;6.47;;;4.38;;
59310;SDS011;45078;51.654;21.250;2023-02-04T03:34:20;5.32;;;3.47;;
59310;SDS011;45078;51.654;21.250;2023-02-04T03:36:47;4.55;;;2.80;;
59310;SDS011;45078;51.654;21.250;2023-02-04T03:39:12;6.95;;;4.25;;
59310;SDS011;45078;51.654;21.250;2023-02-04T03:41:38;9.80;;;4.38;;
59310;SDS011;45078;51.654;21.250;2023-02-04T03:44:04;4.40;;;2.88;;
59310;SDS011;45078;51.654;21.250;2023-02-04T03:46:30;5.88;;;3.22;;
59310;SDS011;45078;51.654;21.250;2023-02-04T03:48:56;4.07;;;2.78;;
59310;SDS011;45078;51.654;21.250;2023-02-04T03:51:21;4.13;;;2.50;;
59310;SDS011;45078;51.654;21.250;2023-02-04T03:53:47;6.07;;;3.72;;
59310;SDS011;45078;51.654;21.250;2023-02-04T03:56:13;4.88;;;2.78;;
59310;SDS011;45078;51.654;21.250;2023-02-04T03:58:39;4.50;;;3.22;;
59310;SDS011;45078;51.654;21.250;2023-02-04T04:01:05;7.10;;;3.67;;
59310;SDS011;45078;51.654;21.250;2023-02-04T04:03:31;10.02;;;5.28;;
59310;SDS011;45078;51.654;21.250;2023-02-04T04:05:56;6.57;;;3.85;;
59310;SDS011;45078;51.654;21.250;2023-02-04T04:08:22;6.80;;;4.07;;
59310;SDS011;45078;51.654;21.250;2023-02-04T04:10:48;4.70;;;2.95;;
59310;SDS011;45078;51.654;21.250;2023-02-04T04:13:14;4.85;;;2.53;;
59310;SDS011;45078;51.654;21.250;2023-02-04T04:15:39;6.30;;;3.55;;
59310;SDS011;45078;51.654;21.250;2023-02-04T04:18:05;6.95;;;3.05;;
59310;SDS011;45078;51.654;21.250;2023-02-04T04:20:31;3.95;;;2.97;;
59310;SDS011;45078;51.654;21.250;2023-02-04T04:22:57;5.70;;;3.13;;
59310;SDS011;45078;51.654;21.250;2023-02-04T04:25:22;5.55;;;3.08;;
59310;SDS011;45078;51.654;21.250;2023-02-04T04:27:48;4.65;;;3.22;;
59310;SDS011;45078;51.654;21.250;2023-02-04T04:30:14;6.28;;;2.70;;
59310;SDS011;45078;51.654;21.250;2023-02-04T04:32:40;5.05;;;3.45;;
59310;SDS011;45078;51.654;21.250;2023-02-04T04:35:06;8.48;;;4.65;;
59310;SDS011;45078;51.654;21.250;2023-02-04T04:37:32;4.03;;;2.97;;
59310;SDS011;45078;51.654;21.250;2023-02-04T04:39:59;5.68;;;2.72;;
59310;SDS011;45078;51.654;21.250;2023-02-04T04:42:25;5.35;;;3.40;;
59310;SDS011;45078;51.654;21.250;2023-02-04T04:44:51;5.47;;;2.78;;
59310;SDS011;45078;51.654;21.250;2023-02-04T04:47:17;8.90;;;3.67;;
59310;SDS011;45078;51.654;21.250;2023-02-04T04:49:43;4.72;;;2.90;;
59310;SDS011;45078;51.654;21.250;2023-02-04T04:52:08;6.35;;;3.13;;
59310;SDS011;45078;51.654;21.250;2023-02-04T04:54:34;4.57;;;2.45;;
59310;SDS011;45078;51.654;21.250;2023-02-04T04:57:00;5.13;;;3.00;;
59310;SDS011;45078;51.654;21.250;2023-02-04T04:59:26;5.97;;;3.10;;
59310;SDS011;45078;51.654;21.250;2023-02-04T05:01:52;4.13;;;2.85;;
59310;SDS011;45078;51.654;21.250;2023-02-04T05:04:18;10.60;;;3.15;;
59310;SDS011;45078;51.654;21.250;2023-02-04T05:06:43;6.07;;;3.10;;
59310;SDS011;45078;51.654;21.250;2023-02-04T05:09:10;5.47;;;3.10;;
59310;SDS011;45078;51.654;21.250;2023-02-04T05:11:35;7.03;;;2.63;;
59310;SDS011;45078;51.654;21.250;2023-02-04T05:14:01;4.28;;;2.72;;
59310;SDS011;45078;51.654;21.250;2023-02-04T05:16:27;5.43;;;3.33;;
59310;SDS011;45078;51.654;21.250;2023-02-04T05:18:53;5.25;;;3.28;;
59310;SDS011;45078;51.654;21.250;2023-02-04T05:21:18;5.55;;;2.58;;
59310;SDS011;45078;51.654;21.250;2023-02-04T05:23:44;5.30;;;2.88;;
59310;SDS011;45078;51.654;21.250;2023-02-04T05:26:10;5.80;;;3.78;;
59310;SDS011;45078;51.654;21.250;2023-02-04T05:28:36;3.78;;;2.53;;
59310;SDS011;45078;51.654;21.250;2023-02-04T05:31:02;3.35;;;1.98;;
59310;SDS011;45078;51.654;21.250;2023-02-04T05:33:27;6.45;;;3.50;;
59310;SDS011;45078;51.654;21.250;2023-02-04T05:35:53;6.78;;;4.28;;
59310;SDS011;45078;51.654;21.250;2023-02-04T05:38:19;5.28;;;2.58;;
59310;SDS011;45078;51.654;21.250;2023-02-04T05:40:45;10.45;;;3.60;;
59310;SDS011;45078;51.654;21.250;2023-02-04T05:43:10;5.07;;;3.13;;
59310;SDS011;45078;51.654;21.250;2023-02-04T05:45:36;6.63;;;3.75;;
59310;SDS011;45078;51.654;21.250;2023-02-04T05:48:02;2.85;;;2.15;;
59310;SDS011;45078;51.654;21.250;2023-02-04T05:50:28;3.80;;;2.38;;
59310;SDS011;45078;51.654;21.250;2023-02-04T05:52:54;9.45;;;3.35;;
59310;SDS011;45078;51.654;21.250;2023-02-04T05:55:20;4.28;;;2.85;;
59310;SDS011;45078;51.654;21.250;2023-02-04T05:57:46;2.75;;;2.13;;
59310;SDS011;45078;51.654;21.250;2023-02-04T06:00:12;6.43;;;3.00;;
59310;SDS011;45078;51.654;21.250;2023-02-04T06:02:38;5.55;;;2.63;;
59310;SDS011;45078;51.654;21.250;2023-02-04T06:05:04;4.97;;;3.10;;
59310;SDS011;45078;51.654;21.250;2023-02-04T06:07:30;5.15;;;2.58;;
59310;SDS011;45078;51.654;21.250;2023-02-04T06:09:56;3.83;;;2.45;;
59310;SDS011;45078;51.654;21.250;2023-02-04T06:12:22;4.45;;;2.53;;
59310;SDS011;45078;51.654;21.250;2023-02-04T06:14:47;6.60;;;2.67;;
59310;SDS011;45078;51.654;21.250;2023-02-04T06:17:13;8.10;;;3.47;;
59310;SDS011;45078;51.654;21.250;2023-02-04T06:19:39;6.70;;;3.30;;
59310;SDS011;45078;51.654;21.250;2023-02-04T06:22:05;8.15;;;3.45;;
59310;SDS011;45078;51.654;21.250;2023-02-04T06:24:30;5.55;;;3.72;;
59310;SDS011;45078;51.654;21.250;2023-02-04T06:26:56;3.92;;;2.92;;
59310;SDS011;45078;51.654;21.250;2023-02-04T06:29:22;6.35;;;3.28;;
59310;SDS011;45078;51.654;21.250;2023-02-04T06:31:48;4.72;;;3.35;;
59310;SDS011;45078;51.654;21.250;2023-02-04T06:34:14;6.28;;;3.40;;
59310;SDS011;45078;51.654;21.250;2023-02-04T06:36:40;11.93;;;3.58;;
59310;SDS011;45078;51.654;21.250;2023-02-04T06:39:06;7.72;;;3.70;;
59310;SDS011;45078;51.654;21.250;2023-02-04T06:41:31;5.35;;;3.33;;
59310;SDS011;45078;51.654;21.250;2023-02-04T06:43:57;7.03;;;3.97;;
59310;SDS011;45078;51.654;21.250;2023-02-04T06:46:23;6.10;;;3.75;;
59310;SDS011;45078;51.654;21.250;2023-02-04T06:48:49;8.07;;;3.83;;
59310;SDS011;45078;51.654;21.250;2023-02-04T06:51:14;5.28;;;3.65;;
59310;SDS011;45078;51.654;21.250;2023-02-04T06:53:40;6.68;;;3.75;;
59310;SDS011;45078;51.654;21.250;2023-02-04T06:56:08;7.03;;;4.30;;
59310;SDS011;45078;51.654;21.250;2023-02-04T06:58:35;5.03;;;3.00;;
59310;SDS011;45078;51.654;21.250;2023-02-04T07:01:01;7.43;;;3.75;;
59310;SDS011;45078;51.654;21.250;2023-02-04T07:03:26;5.05;;;3.35;;
59310;SDS011;45078;51.654;21.250;2023-02-04T07:05:52;6.72;;;3.90;;
59310;SDS011;45078;51.654;21.250;2023-02-04T07:08:18;6.53;;;4.00;;
59310;SDS011;45078;51.654;21.250;2023-02-04T07:10:46;10.77;;;4.80;;
59310;SDS011;45078;51.654;21.250;2023-02-04T07:13:12;4.85;;;2.78;;
59310;SDS011;45078;51.654;21.250;2023-02-04T07:15:38;9.80;;;3.97;;
59310;SDS011;45078;51.654;21.250;2023-02-04T07:18:03;13.85;;;2.85;;
59310;SDS011;45078;51.654;21.250;2023-02-04T07:20:29;4.65;;;3.28;;
59310;SDS011;45078;51.654;21.250;2023-02-04T07:22:55;6.35;;;3.78;;
59310;SDS011;45078;51.654;21.250;2023-02-04T07:25:20;7.53;;;3.92;;
59310;SDS011;45078;51.654;21.250;2023-02-04T07:27:47;5.78;;;3.75;;
59310;SDS011;45078;51.654;21.250;2023-02-04T07:30:13;7.50;;;4.18;;
59310;SDS011;45078;51.654;21.250;2023-02-04T07:32:39;7.35;;;4.32;;
59310;SDS011;45078;51.654;21.250;2023-02-04T07:35:05;7.60;;;4.50;;
59310;SDS011;45078;51.654;21.250;2023-02-04T07:37:31;4.78;;;3.35;;
59310;SDS011;45078;51.654;21.250;2023-02-04T07:39:57;8.57;;;3.58;;
59310;SDS011;45078;51.654;21.250;2023-02-04T07:42:22;6.97;;;4.07;;
59310;SDS011;45078;51.654;21.250;2023-02-04T07:44:48;13.38;;;4.47;;
59310;SDS011;45078;51.654;21.250;2023-02-04T07:47:14;4.72;;;2.28;;
59310;SDS011;45078;51.654;21.250;2023-02-04T07:49:40;5.85;;;3.30;;
59310;SDS011;45078;51.654;21.250;2023-02-04T07:52:05;5.75;;;3.92;;
59310;SDS011;45078;51.654;21.250;2023-02-04T07:54:31;4.47;;;3.47;;
59310;SDS011;45078;51.654;21.250;2023-02-04T07:56:57;4.43;;;3.17;;
59310;SDS011;45078;51.654;21.250;2023-02-04T07:59:23;9.27;;;5.45;;
59310;SDS011;45078;51.654;21.250;2023-02-04T08:01:48;9.07;;;4.03;;
59310;SDS011;45078;51.654;21.250;2023-02-04T08:04:14;5.75;;;3.28;;
59310;SDS011;45078;51.654;21.250;2023-02-04T08:06:40;4.43;;;2.90;;
59310;SDS011;45078;51.654;21.250;2023-02-04T08:09:06;4.28;;;2.75;;
59310;SDS011;45078;51.654;21.250;2023-02-04T08:11:31;8.95;;;4.05;;
59310;SDS011;45078;51.654;21.250;2023-02-04T08:13:57;5.25;;;3.20;;
59310;SDS011;45078;51.654;21.250;2023-02-04T08:16:23;5.72;;;3.20;;
59310;SDS011;45078;51.654;21.250;2023-02-04T08:18:49;6.05;;;3.20;;
59310;SDS011;45078;51.654;21.250;2023-02-04T08:21:14;7.90;;;3.75;;
59310;SDS011;45078;51.654;21.250;2023-02-04T08:23:40;6.53;;;3.20;;
59310;SDS011;45078;51.654;21.250;2023-02-04T08:26:09;5.63;;;3.15;;
59310;SDS011;45078;51.654;21.250;2023-02-04T08:28:36;6.35;;;3.58;;
59310;SDS011;45078;51.654;21.250;2023-02-04T08:31:05;6.03;;;3.42;;
59310;SDS011;45078;51.654;21.250;2023-02-04T08:33:31;5.18;;;3.22;;
59310;SDS011;45078;51.654;21.250;2023-02-04T08:35:57;6.60;;;3.60;;
59310;SDS011;45078;51.654;21.250;2023-02-04T08:38:23;3.67;;;1.95;;
59310;SDS011;45078;51.654;21.250;2023-02-04T08:40:49;5.15;;;2.90;;
59310;SDS011;45078;51.654;21.250;2023-02-04T08:43:14;5.65;;;2.72;;
59310;SDS011;45078;51.654;21.250;2023-02-04T08:45:40;6.20;;;3.25;;
59310;SDS011;45078;51.654;21.250;2023-02-04T08:48:06;5.25;;;3.17;;
59310;SDS011;45078;51.654;21.250;2023-02-04T08:50:33;5.43;;;2.50;;
59310;SDS011;45078;51.654;21.250;2023-02-04T08:52:59;5.00;;;3.13;;
59310;SDS011;45078;51.654;21.250;2023-02-04T08:55:25;5.57;;;3.28;;
59310;SDS011;45078;51.654;21.250;2023-02-04T08:57:51;4.72;;;3.22;;
59310;SDS011;45078;51.654;21.250;2023-02-04T09:00:17;3.33;;;2.25;;
59310;SDS011;45078;51.654;21.250;2023-02-04T09:02:43;4.32;;;2.65;;
59310;SDS011;45078;51.654;21.250;2023-02-04T09:05:09;6.80;;;2.72;;
59310;SDS011;45078;51.654;21.250;2023-02-04T09:07:35;5.50;;;2.78;;
59310;SDS011;45078;51.654;21.250;2023-02-04T09:10:00;6.25;;;2.78;;
59310;SDS011;45078;51.654;21.250;2023-02-04T09:12:26;4.53;;;2.45;;
59310;SDS011;45078;51.654;21.250;2023-02-04T09:14:52;3.58;;;2.45;;
59310;SDS011;45078;51.654;21.250;2023-02-04T09:17:18;3.47;;;2.10;;
59310;SDS011;45078;51.654;21.250;2023-02-04T09:19:43;6.15;;;2.33;;
59310;SDS011;45078;51.654;21.250;2023-02-04T09:22:09;7.32;;;2.17;;
59310;SDS011;45078;51.654;21.250;2023-02-04T09:24:37;6.90;;;1.83;;
59310;SDS011;45078;51.654;21.250;2023-02-04T09:27:03;4.70;;;2.50;;
59310;SDS011;45078;51.654;21.250;2023-02-04T09:29:29;2.47;;;1.60;;
59310;SDS011;45078;51.654;21.250;2023-02-04T09:31:54;3.40;;;2.17;;
59310;SDS011;45078;51.654;21.250;2023-02-04T09:34:20;4.65;;;2.55;;
59310;SDS011;45078;51.654;21.250;2023-02-04T09:36:46;2.63;;;1.45;;
59310;SDS011;45078;51.654;21.250;2023-02-04T09:39:12;5.63;;;2.78;;
59310;SDS011;45078;51.654;21.250;2023-02-04T09:41:38;3.17;;;1.83;;
59310;SDS011;45078;51.654;21.250;2023-02-04T09:44:15;7.03;;;2.40;;
59310;SDS011;45078;51.654;21.250;2023-02-04T09:46:46;4.45;;;2.38;;
59310;SDS011;45078;51.654;21.250;2023-02-04T09:49:16;4.03;;;2.03;;
59310;SDS011;45078;51.654;21.250;2023-02-04T09:51:42;6.18;;;2.55;;
59310;SDS011;45078;51.654;21.250;2023-02-04T09:54:13;3.90;;;2.22;;
59310;SDS011;45078;51.654;21.250;2023-02-04T09:56:41;2.97;;;1.88;;
59310;SDS011;45078;51.654;21.250;2023-02-04T09:59:11;5.18;;;2.15;;
59310;SDS011;45078;51.654;21.250;2023-02-04T10:01:37;3.00;;;1.58;;
59310;SDS011;45078;51.654;21.250;2023-02-04T10:04:04;5.05;;;1.85;;
59310;SDS011;45078;51.654;21.250;2023-02-04T10:06:32;2.05;;;1.27;;
59310;SDS011;45078;51.654;21.250;2023-02-04T10:08:58;2.83;;;1.50;;
59310;SDS011;45078;51.654;21.250;2023-02-04T10:11:24;3.80;;;1.70;;
59310;SDS011;45078;51.654;21.250;2023-02-04T10:13:52;5.90;;;1.95;;
59310;SDS011;45078;51.654;21.250;2023-02-04T10:16:21;4.40;;;1.95;;
59310;SDS011;45078;51.654;21.250;2023-02-04T10:19:00;3.58;;;1.83;;
59310;SDS011;45078;51.654;21.250;2023-02-04T10:21:29;3.78;;;2.15;;
59310;SDS011;45078;51.654;21.250;2023-02-04T10:23:57;3.25;;;1.45;;
59310;SDS011;45078;51.654;21.250;2023-02-04T10:26:26;1.65;;;1.02;;
59310;SDS011;45078;51.654;21.250;2023-02-04T10:29:00;4.63;;;2.08;;
59310;SDS011;45078;51.654;21.250;2023-02-04T10:36:36;3.83;;;1.80;;
59310;SDS011;45078;51.654;21.250;2023-02-04T10:39:03;5.43;;;1.83;;
59310;SDS011;45078;51.654;21.250;2023-02-04T10:41:35;4.78;;;1.40;;
59310;SDS011;45078;51.654;21.250;2023-02-04T10:44:03;3.17;;;1.50;;
59310;SDS011;45078;51.654;21.250;2023-02-04T10:46:34;6.25;;;1.88;;
59310;SDS011;45078;51.654;21.250;2023-02-04T10:49:02;2.88;;;1.00;;
59310;SDS011;45078;51.654;21.250;2023-02-04T10:51:29;1.95;;;1.30;;
59310;SDS011;45078;51.654;21.250;2023-02-04T10:53:55;2.75;;;1.40;;
59310;SDS011;45078;51.654;21.250;2023-02-04T10:56:39;3.80;;;1.50;;
59310;SDS011;45078;51.654;21.250;2023-02-04T10:59:08;2.92;;;1.27;;
59310;SDS011;45078;51.654;21.250;2023-02-04T11:01:45;3.08;;;1.20;;
59310;SDS011;45078;51.654;21.250;2023-02-04T11:04:11;3.05;;;0.82;;
59310;SDS011;45078;51.654;21.250;2023-02-04T11:06:36;2.83;;;1.30;;
59310;SDS011;45078;51.654;21.250;2023-02-04T11:09:02;6.28;;;1.52;;
59310;SDS011;45078;51.654;21.250;2023-02-04T11:11:28;1.98;;;1.08;;
59310;SDS011;45078;51.654;21.250;2023-02-04T11:16:23;3.05;;;1.40;;
59310;SDS011;45078;51.654;21.250;2023-02-04T11:18:50;2.17;;;1.27;;
59310;SDS011;45078;51.654;21.250;2023-02-04T11:26:41;1.75;;;1.15;;
59310;SDS011;45078;51.654;21.250;2023-02-04T11:29:21;2.92;;;1.58;;
59310;SDS011;45078;51.654;21.250;2023-02-04T11:39:37;4.30;;;2.20;;
59310;SDS011;45078;51.654;21.250;2023-02-04T11:44:50;5.28;;;1.80;;
59310;SDS011;45078;51.654;21.250;2023-02-04T11:47:18;2.35;;;1.40;;
59310;SDS011;45078;51.654;21.250;2023-02-04T11:49:46;2.45;;;1.05;;
59310;SDS011;45078;51.654;21.250;2023-02-04T11:52:18;1.95;;;1.38;;
59310;SDS011;45078;51.654;21.250;2023-02-04T11:54:52;2.58;;;1.40;;
59310;SDS011;45078;51.654;21.250;2023-02-04T11:57:24;1.50;;;1.33;;
59310;SDS011;45078;51.654;21.250;2023-02-04T11:59:51;2.15;;;1.30;;
59310;SDS011;45078;51.654;21.250;2023-02-04T12:02:19;2.45;;;1.65;;
59310;SDS011;45078;51.654;21.250;2023-02-04T12:04:53;2.03;;;1.75;;
59310;SDS011;45078;51.654;21.250;2023-02-04T12:07:37;0.80;;;0.80;;
59310;SDS011;45078;51.654;21.250;2023-02-04T12:12:53;2.50;;;1.58;;
59310;SDS011;45078;51.654;21.250;2023-02-04T12:18:03;2.63;;;1.73;;
59310;SDS011;45078;51.654;21.250;2023-02-04T12:20:34;3.83;;;1.83;;
59310;SDS011;45078;51.654;21.250;2023-02-04T12:23:01;3.30;;;1.48;;
59310;SDS011;45078;51.654;21.250;2023-02-04T12:25:27;1.85;;;1.33;;
59310;SDS011;45078;51.654;21.250;2023-02-04T12:27:53;3.33;;;1.50;;
59310;SDS011;45078;51.654;21.250;2023-02-04T12:30:20;1.98;;;1.75;;
59310;SDS011;45078;51.654;21.250;2023-02-04T12:32:47;2.03;;;1.40;;
59310;SDS011;45078;51.654;21.250;2023-02-04T12:35:12;2.22;;;1.40;;
59310;SDS011;45078;51.654;21.250;2023-02-04T12:37:38;8.68;;;3.67;;
59310;SDS011;45078;51.654;21.250;2023-02-04T12:40:04;5.40;;;3.20;;
59310;SDS011;45078;51.654;21.250;2023-02-04T12:42:31;2.67;;;1.65;;
59310;SDS011;45078;51.654;21.250;2023-02-04T12:44:57;4.35;;;1.85;;
59310;SDS011;45078;51.654;21.250;2023-02-04T12:47:23;3.25;;;1.90;;
59310;SDS011;45078;51.654;21.250;2023-02-04T12:49:49;4.90;;;2.20;;
59310;SDS011;45078;51.654;21.250;2023-02-04T12:52:15;5.57;;;1.95;;
59310;SDS011;45078;51.654;21.250;2023-02-04T12:54:41;5.60;;;1.55;;
59310;SDS011;45078;51.654;21.250;2023-02-04T12:57:07;2.95;;;2.20;;
59310;SDS011;45078;51.654;21.250;2023-02-04T12:59:35;6.88;;;3.10;;
59310;SDS011;45078;51.654;21.250;2023-02-04T13:02:01;2.47;;;1.40;;
59310;SDS011;45078;51.654;21.250;2023-02-04T13:04:27;4.15;;;2.10;;
59310;SDS011;45078;51.654;21.250;2023-02-04T13:06:53;3.53;;;2.13;;
59310;SDS011;45078;51.654;21.250;2023-02-04T13:09:19;6.13;;;2.85;;
59310;SDS011;45078;51.654;21.250;2023-02-04T13:11:45;5.95;;;3.97;;
59310;SDS011;45078;51.654;21.250;2023-02-04T13:14:12;6.60;;;2.60;;
59310;SDS011;45078;51.654;21.250;2023-02-04T13:16:38;3.47;;;2.30;;
59310;SDS011;45078;51.654;21.250;2023-02-04T13:19:03;5.47;;;3.13;;
59310;SDS011;45078;51.654;21.250;2023-02-04T13:21:30;4.38;;;2.20;;
59310;SDS011;45078;51.654;21.250;2023-02-04T13:23:56;4.85;;;2.60;;
59310;SDS011;45078;51.654;21.250;2023-02-04T13:26:23;2.45;;;1.70;;
59310;SDS011;45078;51.654;21.250;2023-02-04T13:28:49;6.03;;;2.80;;
59310;SDS011;45078;51.654;21.250;2023-02-04T13:31:15;4.60;;;2.55;;
59310;SDS011;45078;51.654;21.250;2023-02-04T13:33:41;3.63;;;2.15;;
59310;SDS011;45078;51.654;21.250;2023-02-04T13:36:07;4.00;;;2.22;;
59310;SDS011;45078;51.654;21.250;2023-02-04T13:38:33;3.28;;;2.03;;
59310;SDS011;45078;51.654;21.250;2023-02-04T13:40:59;4.45;;;2.15;;
59310;SDS011;45078;51.654;21.250;2023-02-04T13:43:25;9.18;;;2.28;;
59310;SDS011;45078;51.654;21.250;2023-02-04T13:45:51;4.60;;;2.90;;
59310;SDS011;45078;51.654;21.250;2023-02-04T13:48:17;4.07;;;1.90;;
59310;SDS011;45078;51.654;21.250;2023-02-04T13:50:43;9.40;;;3.53;;
59310;SDS011;45078;51.654;21.250;2023-02-04T13:53:09;8.82;;;2.60;;
59310;SDS011;45078;51.654;21.250;2023-02-04T13:55:35;4.43;;;2.53;;
59310;SDS011;45078;51.654;21.250;2023-02-04T13:58:01;5.05;;;2.17;;
59310;SDS011;45078;51.654;21.250;2023-02-04T14:00:27;3.97;;;2.58;;
59310;SDS011;45078;51.654;21.250;2023-02-04T14:02:53;3.00;;;2.03;;
59310;SDS011;45078;51.654;21.250;2023-02-04T14:05:20;4.32;;;2.20;;
59310;SDS011;45078;51.654;21.250;2023-02-04T14:07:46;4.82;;;2.83;;
59310;SDS011;45078;51.654;21.250;2023-02-04T14:10:12;1.52;;;1.42;;
59310;SDS011;45078;51.654;21.250;2023-02-04T14:12:38;1.60;;;1.45;;
59310;SDS011;45078;51.654;21.250;2023-02-04T14:15:05;5.47;;;1.83;;
59310;SDS011;45078;51.654;21.250;2023-02-04T14:17:32;4.50;;;2.25;;
59310;SDS011;45078;51.654;21.250;2023-02-04T14:19:57;5.07;;;2.10;;
59310;SDS011;45078;51.654;21.250;2023-02-04T14:22:23;4.30;;;2.17;;
59310;SDS011;45078;51.654;21.250;2023-02-04T14:24:49;5.78;;;2.70;;
59310;SDS011;45078;51.654;21.250;2023-02-04T14:27:15;5.50;;;3.00;;
59310;SDS011;45078;51.654;21.250;2023-02-04T14:29:41;4.60;;;2.53;;
59310;SDS011;45078;51.654;21.250;2023-02-04T14:32:07;6.93;;;3.80;;
59310;SDS011;45078;51.654;21.250;2023-02-04T14:34:32;5.68;;;2.78;;
59310;SDS011;45078;51.654;21.250;2023-02-04T14:36:58;5.10;;;2.35;;
59310;SDS011;45078;51.654;21.250;2023-02-04T14:39:24;7.93;;;2.30;;
59310;SDS011;45078;51.654;21.250;2023-02-04T14:41:50;4.43;;;2.65;;
59310;SDS011;45078;51.654;21.250;2023-02-04T14:44:16;6.43;;;2.85;;
59310;SDS011;45078;51.654;21.250;2023-02-04T14:46:45;3.45;;;2.00;;
59310;SDS011;45078;51.654;21.250;2023-02-04T14:49:13;6.22;;;2.42;;
59310;SDS011;45078;51.654;21.250;2023-02-04T14:51:40;4.32;;;2.15;;
59310;SDS011;45078;51.654;21.250;2023-02-04T14:54:06;3.55;;;2.00;;
59310;SDS011;45078;51.654;21.250;2023-02-04T14:56:32;2.80;;;1.90;;
59310;SDS011;45078;51.654;21.250;2023-02-04T14:58:58;2.97;;;1.70;;
59310;SDS011;45078;51.654;21.250;2023-02-04T15:01:24;2.53;;;1.83;;